Terminal Aerodrome Forecast
Issued by NWS Binghamton, NY

Home | Current Version | Previous Version | Text Only | Print | Product List | Glossary On
Versions: 1 2 3 4 5 6 7 8 9 10 11 12 13 14 15 16 17 18 19 20
191
FTUS41 KBGM 121140
TAFSYR
TAF
KSYR 121140Z 1212/1312 09007KT 3SM -SN OVC020
      TEMPO 1212/1216 1 1/2SM -SN OVC012
     FM121600 24005KT 4SM -SN OVC012
      TEMPO 1216/1219 26010G18KT 1SM -SN OVC007
     FM121900 26012G20KT 2SM -SN BLSN OVC015
     FM122200 27014G24KT P6SM OVC020
     FM130500 27015G24KT 1SM -SN BLSN OVC012=

USA.gov is the U.S. government's official web portal to all federal, state and local government web resources and services.